createdAt,value
2019-03-08T00:02:21.107Z,52.60
2019-03-08T00:04:51.422Z,50.50
2019-03-08T00:07:21.709Z,50.10
2019-03-08T00:09:52.203Z,51.40
2019-03-08T00:12:22.349Z,51.00
2019-03-08T00:14:52.556Z,51.00
2019-03-08T00:17:22.717Z,51.10
2019-03-08T00:19:53.175Z,50.70
2019-03-08T00:22:23.301Z,50.40
2019-03-08T00:24:53.494Z,51.80
2019-03-08T00:27:23.509Z,51.30
2019-03-08T00:29:53.655Z,50.80
2019-03-08T00:32:23.769Z,51.40
2019-03-08T00:34:54.106Z,51.20
2019-03-08T00:37:24.165Z,50.60
2019-03-08T00:39:54.543Z,50.90
2019-03-08T00:42:24.685Z,50.20
2019-03-08T00:44:54.832Z,52.30
2019-03-08T00:47:24.895Z,51.80
2019-03-08T00:49:55.634Z,51.40
2019-03-08T00:52:25.772Z,51.80
2019-03-08T00:54:56.067Z,50.90
2019-03-08T00:57:26.260Z,51.20
2019-03-08T00:59:56.819Z,50.70
2019-03-08T01:02:27.185Z,50.90
2019-03-08T01:04:57.260Z,52.50
2019-03-08T01:07:27.534Z,51.60
2019-03-08T01:09:57.752Z,51.20
2019-03-08T01:12:28.253Z,51.00
2019-03-08T01:14:58.383Z,50.80
2019-03-08T01:17:28.572Z,51.30
2019-03-08T01:19:59.117Z,52.10
2019-03-08T01:22:29.355Z,51.90
2019-03-08T01:24:59.867Z,50.90
2019-03-08T01:27:30.098Z,51.40
2019-03-08T01:30:00.120Z,51.20
2019-03-08T01:32:30.242Z,51.40
2019-03-08T01:35:00.366Z,50.90
2019-03-08T01:37:30.463Z,52.40
2019-03-08T01:40:01.121Z,52.60
2019-03-08T01:42:31.834Z,53.10
2019-03-08T01:45:03.839Z,52.80
2019-03-08T01:47:34.049Z,53.00
2019-03-08T01:50:06.633Z,53.70
2019-03-08T01:52:36.781Z,53.40
2019-03-08T01:55:07.535Z,54.20
2019-03-08T01:57:38.048Z,53.40
2019-03-08T02:00:19.309Z,52.90
2019-03-08T02:02:49.457Z,53.90
2019-03-08T02:05:20.252Z,53.90
2019-03-08T02:07:50.463Z,54.60
2019-03-08T02:10:20.613Z,54.50
2019-03-08T02:12:50.870Z,52.10
2019-03-08T02:15:21.418Z,53.40
2019-03-08T02:17:51.744Z,53.10
2019-03-08T02:20:22.860Z,54.50
2019-03-08T02:22:53.078Z,54.20
2019-03-08T02:25:23.090Z,55.50
2019-03-08T02:27:53.217Z,53.30
2019-03-08T02:30:23.404Z,53.10
2019-03-08T02:32:53.898Z,53.30
2019-03-08T02:35:24.181Z,53.90
2019-03-08T02:37:54.230Z,53.00
2019-03-08T02:40:30.104Z,53.70
2019-03-08T02:43:02.507Z,53.40
2019-03-08T02:45:32.775Z,52.10
2019-03-08T02:48:02.913Z,52.50
2019-03-08T02:50:34.464Z,54.10
2019-03-08T02:53:05.179Z,53.40
2019-03-08T02:55:35.597Z,55.40
2019-03-08T02:58:05.799Z,52.60
2019-03-08T03:00:39.740Z,53.50
2019-03-08T03:03:09.906Z,53.80
2019-03-08T03:05:40.400Z,52.60
2019-03-08T03:08:10.453Z,52.60
2019-03-08T03:10:40.917Z,52.20
2019-03-08T03:13:11.150Z,52.20
2019-03-08T03:15:41.370Z,52.70
2019-03-08T03:18:12.734Z,52.60
2019-03-08T03:20:43.034Z,52.40
2019-03-08T03:23:13.104Z,53.00
2019-03-08T03:25:43.269Z,52.50
2019-03-08T03:28:13.627Z,52.80
2019-03-08T03:30:43.703Z,52.50
2019-03-08T03:33:13.951Z,52.60
2019-03-08T03:35:44.479Z,52.40
2019-03-08T03:38:14.822Z,54.00
2019-03-08T03:40:45.064Z,54.00
2019-03-08T03:43:15.515Z,52.60
2019-03-08T03:45:45.740Z,52.70
2019-03-08T03:48:15.827Z,54.30
2019-03-08T03:50:45.941Z,54.00
2019-03-08T03:53:16.542Z,55.60
2019-03-08T03:55:46.692Z,55.40
2019-03-08T03:58:17.302Z,53.20
2019-03-08T04:00:47.365Z,52.90
2019-03-08T04:03:18.596Z,54.20
2019-03-08T04:05:48.802Z,55.80
2019-03-08T04:08:18.962Z,54.90
2019-03-08T04:10:49.031Z,56.00
2019-03-08T04:13:19.568Z,55.40
2019-03-08T04:15:50.181Z,56.20
2019-03-08T04:18:20.731Z,54.10
2019-03-08T04:20:50.899Z,55.70
2019-03-08T04:23:21.040Z,55.10
2019-03-08T04:25:51.483Z,56.30
2019-03-08T04:28:21.641Z,55.50
2019-03-08T04:30:52.019Z,56.60
2019-03-08T04:33:22.556Z,56.80
2019-03-08T04:35:52.687Z,56.20
2019-03-08T04:38:23.225Z,56.60
2019-03-08T04:40:53.747Z,56.10
2019-03-08T04:43:23.959Z,56.30
2019-03-08T04:45:54.112Z,56.40
2019-03-08T04:48:24.181Z,56.40
2019-03-08T04:50:54.348Z,55.90
2019-03-08T04:53:24.952Z,57.10
2019-03-08T04:55:55.117Z,56.80
2019-03-08T04:58:25.556Z,56.30
2019-03-08T05:00:56.128Z,57.40
2019-03-08T05:03:26.269Z,56.10
2019-03-08T05:05:56.674Z,55.40
2019-03-08T05:08:26.788Z,57.20
2019-03-08T05:10:56.994Z,57.20
2019-03-08T05:13:27.089Z,55.90
2019-03-08T05:15:57.155Z,56.00
2019-03-08T05:18:27.367Z,57.20
2019-03-08T05:20:57.372Z,57.70
2019-03-08T05:23:27.454Z,56.40
2019-03-08T05:25:57.544Z,56.50
2019-03-08T05:28:27.619Z,57.60
2019-03-08T05:30:57.975Z,57.10
2019-03-08T05:33:28.451Z,57.60
2019-03-08T05:35:59.042Z,57.90
2019-03-08T05:38:29.198Z,57.50
2019-03-08T05:40:59.568Z,56.60
2019-03-08T05:43:29.659Z,57.00
2019-03-08T05:45:59.660Z,57.80
2019-03-08T05:48:29.906Z,56.80
2019-03-08T05:50:59.966Z,54.50
2019-03-08T05:53:30.577Z,57.30
2019-03-08T05:56:00.669Z,58.40
2019-03-08T05:58:30.984Z,57.90
2019-03-08T06:01:01.187Z,57.70
2019-03-08T06:03:31.345Z,57.80
2019-03-08T06:06:02.021Z,58.60
2019-03-08T06:08:32.156Z,58.40
2019-03-08T06:11:02.243Z,54.90
2019-03-08T06:13:32.414Z,57.90
2019-03-08T06:16:02.650Z,61.10
2019-03-08T06:18:33.115Z,63.80
2019-03-08T06:21:03.321Z,65.80
2019-03-08T06:23:33.399Z,67.50
2019-03-08T06:26:04.036Z,68.20
2019-03-08T06:28:34.411Z,69.00
2019-03-08T06:31:05.033Z,69.40
2019-03-08T06:33:35.264Z,68.50
2019-03-08T06:36:05.385Z,68.50
2019-03-08T06:38:36.068Z,68.60
2019-03-08T06:41:06.194Z,68.20
2019-03-08T06:43:36.698Z,67.50
2019-03-08T06:46:06.915Z,65.90
2019-03-08T06:48:36.930Z,66.00
2019-03-08T06:51:07.079Z,65.20
2019-03-08T06:53:37.287Z,63.70
2019-03-08T06:56:07.691Z,62.40
2019-03-08T06:58:39.473Z,61.20
2019-03-08T07:01:10.942Z,60.90
2019-03-08T07:03:40.999Z,60.60
2019-03-08T07:06:11.444Z,60.80
2019-03-08T07:08:41.955Z,59.70
2019-03-08T07:11:12.087Z,58.90
2019-03-08T07:13:42.233Z,58.90
2019-03-08T07:16:13.377Z,59.40
2019-03-08T07:18:44.197Z,58.80
2019-03-08T07:21:16.067Z,58.70
2019-03-08T07:23:48.297Z,58.10
2019-03-08T07:26:26.900Z,58.10
2019-03-08T07:29:10.971Z,57.40
2019-03-08T07:31:48.327Z,56.70
2019-03-08T07:34:26.065Z,54.40
2019-03-08T07:36:58.212Z,51.00
2019-03-08T07:39:33.113Z,46.00
2019-03-08T07:42:17.348Z,41.40
2019-03-08T07:45:05.346Z,38.40
2019-03-08T07:47:37.212Z,36.50
2019-03-08T07:50:28.103Z,34.40
2019-03-08T07:53:09.297Z,33.10
2019-03-08T07:55:57.052Z,31.50
2019-03-08T07:58:28.883Z,30.40
2019-03-08T08:01:03.937Z,30.20
2019-03-08T08:03:38.355Z,28.80
2019-03-08T08:06:10.148Z,28.00
2019-03-08T08:08:58.772Z,28.50
2019-03-08T08:11:33.992Z,28.50
2019-03-08T08:14:05.810Z,28.80
2019-03-08T08:16:40.902Z,29.10
2019-03-08T08:19:30.885Z,28.30
2019-03-08T08:22:06.832Z,27.80
2019-03-08T08:24:40.971Z,27.40
2019-03-08T08:27:16.185Z,26.40
2019-03-08T08:29:50.829Z,25.90
2019-03-08T08:32:22.608Z,25.10
2019-03-08T08:35:06.784Z,25.10
2019-03-08T08:37:38.574Z,24.90
2019-03-08T08:40:28.176Z,24.90
2019-03-08T08:43:16.388Z,24.60
2019-03-08T08:45:51.535Z,23.90
2019-03-08T08:48:35.409Z,23.20
2019-03-08T08:51:10.044Z,23.80
2019-03-08T08:53:42.489Z,22.90
2019-03-08T08:56:30.763Z,22.40
2019-03-08T08:59:05.485Z,22.40
2019-03-08T09:01:40.598Z,22.80
2019-03-08T09:04:27.399Z,22.20
2019-03-08T09:07:05.458Z,22.10
2019-03-08T09:09:37.871Z,21.30
2019-03-08T09:12:19.063Z,21.30
2019-03-08T09:14:53.905Z,22.10
2019-03-08T09:17:37.922Z,21.00
2019-03-08T09:20:26.841Z,20.20
2019-03-08T09:23:04.498Z,20.10
2019-03-08T09:25:37.574Z,19.60
2019-03-08T09:28:09.382Z,19.40
2019-03-08T09:30:47.129Z,18.70
2019-03-08T09:33:18.926Z,18.60
2019-03-08T09:36:03.763Z,19.50
2019-03-08T09:38:51.856Z,19.20
2019-03-08T09:41:23.643Z,19.20
2019-03-08T09:43:56.141Z,20.50
2019-03-08T09:46:28.298Z,19.90
2019-03-08T09:49:00.479Z,19.70
2019-03-08T09:51:48.879Z,19.40
2019-03-08T09:54:26.919Z,20.20
2019-03-08T09:57:15.153Z,19.40
2019-03-08T09:59:55.888Z,19.40
2019-03-08T10:02:27.536Z,19.30
2019-03-08T10:05:07.986Z,18.70
2019-03-08T10:07:40.120Z,18.10
2019-03-08T10:10:15.259Z,18.10
2019-03-08T10:13:03.111Z,18.20
2019-03-08T10:15:38.023Z,19.90
2019-03-08T10:18:19.027Z,19.10
2019-03-08T10:20:51.052Z,18.70
2019-03-08T10:23:38.186Z,18.50
2019-03-08T10:26:26.590Z,18.30
2019-03-08T10:29:07.783Z,17.30
2019-03-08T10:31:39.650Z,17.60
2019-03-08T10:34:11.567Z,17.30
2019-03-08T10:37:00.079Z,18.90
2019-03-08T10:39:50.260Z,19.40
2019-03-08T10:42:27.988Z,18.50
2019-03-08T10:45:02.528Z,18.30
2019-03-08T10:47:56.112Z,17.90
2019-03-08T10:50:41.219Z,19.50
2019-03-08T10:53:19.206Z,16.80
2019-03-08T10:55:51.092Z,17.00
2019-03-08T10:58:29.135Z,15.80
2019-03-08T11:01:17.185Z,15.90
2019-03-08T11:03:58.301Z,15.30
2019-03-08T11:06:45.150Z,14.90
2019-03-08T11:09:19.364Z,14.90
2019-03-08T11:11:54.059Z,15.70
2019-03-08T11:14:28.244Z,15.20
2019-03-08T11:17:02.708Z,16.20
2019-03-08T11:19:34.869Z,15.80
2019-03-08T11:22:16.467Z,15.80
2019-03-08T11:24:51.449Z,16.40
2019-03-08T11:27:35.453Z,20.30
2019-03-08T11:30:10.545Z,23.80
2019-03-08T11:32:46.368Z,21.40
2019-03-08T11:35:21.493Z,18.30
2019-03-08T11:37:53.648Z,16.80
2019-03-08T11:40:34.581Z,19.80
2019-03-08T11:43:22.699Z,23.20
2019-03-08T11:46:00.216Z,26.10
2019-03-08T11:48:32.307Z,26.70
2019-03-08T11:51:03.961Z,27.30
2019-03-08T11:53:38.803Z,28.30
2019-03-08T11:56:10.529Z,30.10
2019-03-08T11:58:48.409Z,30.60
2019-03-08T12:01:20.618Z,31.60
2019-03-08T12:04:08.665Z,31.10
2019-03-08T12:06:49.776Z,31.80
2019-03-08T12:09:22.003Z,31.70
2019-03-08T12:12:10.672Z,30.60
2019-03-08T12:14:42.844Z,31.80
2019-03-08T12:17:17.559Z,32.40
2019-03-08T12:19:49.646Z,32.30
2019-03-08T12:22:21.440Z,32.60
2019-03-08T12:24:53.969Z,33.60
2019-03-08T12:27:26.252Z,32.80
2019-03-08T12:29:58.508Z,32.30
2019-03-08T12:32:33.064Z,34.70
2019-03-08T12:35:10.545Z,33.20
2019-03-08T12:37:50.954Z,32.80
2019-03-08T12:40:41.479Z,33.00
2019-03-08T12:43:13.972Z,32.20
2019-03-08T12:45:57.555Z,33.90
2019-03-08T12:48:46.068Z,32.90
2019-03-08T12:51:20.643Z,33.60
2019-03-08T12:54:09.025Z,33.60
2019-03-08T12:56:41.086Z,34.20
2019-03-08T12:59:13.246Z,33.30
2019-03-08T13:01:56.974Z,33.20
2019-03-08T13:04:31.632Z,33.90
2019-03-08T13:07:03.580Z,32.30
2019-03-08T13:09:35.290Z,32.80
2019-03-08T13:12:05.529Z,33.20
2019-03-08T13:14:35.594Z,33.10
2019-03-08T13:17:06.100Z,32.70
2019-03-08T13:19:36.636Z,33.70
2019-03-08T13:22:06.763Z,32.90
2019-03-08T13:24:36.922Z,33.60
2019-03-08T13:27:07.328Z,34.20
2019-03-08T13:29:37.561Z,33.70
2019-03-08T13:32:07.818Z,34.50
2019-03-08T13:34:37.874Z,35.00
2019-03-08T13:37:08.117Z,34.50
2019-03-08T13:39:38.249Z,34.60
2019-03-08T13:42:08.419Z,33.00
2019-03-08T13:44:38.405Z,33.50
2019-03-08T13:47:08.661Z,33.80
2019-03-08T13:49:38.804Z,34.40
2019-03-08T13:52:09.221Z,32.00
2019-03-08T13:54:39.282Z,32.10
2019-03-08T13:57:09.863Z,32.60
2019-03-08T13:59:41.222Z,33.10
2019-03-08T14:02:12.888Z,32.30
2019-03-08T14:04:43.304Z,31.80
2019-03-08T14:07:13.358Z,32.70
2019-03-08T14:09:43.438Z,32.60
2019-03-08T14:12:13.889Z,31.60
2019-03-08T14:14:43.974Z,32.60
2019-03-08T14:17:15.247Z,33.60
2019-03-08T14:19:45.372Z,33.60
2019-03-08T14:22:15.491Z,31.30
2019-03-08T14:24:45.986Z,30.80
2019-03-08T14:27:16.111Z,31.70
2019-03-08T14:29:46.273Z,32.10
2019-03-08T14:32:16.858Z,32.60
2019-03-08T14:34:49.582Z,32.70
2019-03-08T14:37:19.911Z,32.50
2019-03-08T14:39:50.699Z,32.70
2019-03-08T14:42:22.477Z,33.50
2019-03-08T14:44:54.614Z,33.40
2019-03-08T14:47:29.576Z,33.80
2019-03-08T14:50:01.248Z,34.20
2019-03-08T14:52:31.630Z,34.60
2019-03-08T14:55:01.763Z,35.40
2019-03-08T14:57:32.019Z,35.00
2019-03-08T15:00:02.097Z,34.40
2019-03-08T15:02:33.737Z,34.70
2019-03-08T15:05:11.290Z,34.50
2019-03-08T15:07:37.323Z,35.00
2019-03-08T15:10:13.557Z,35.30
2019-03-08T15:12:49.062Z,34.90
2019-03-08T15:15:17.261Z,35.60
2019-03-08T15:17:49.553Z,35.70
2019-03-08T15:20:20.510Z,35.70
2019-03-08T15:22:50.911Z,36.50
2019-03-08T15:25:21.124Z,36.20
2019-03-08T15:27:51.541Z,36.30
2019-03-08T15:30:22.090Z,36.70
2019-03-08T15:32:52.335Z,36.10
2019-03-08T15:35:22.604Z,36.20
2019-03-08T15:37:53.158Z,36.30
2019-03-08T15:40:23.894Z,36.40
2019-03-08T15:42:54.100Z,36.30
2019-03-08T15:45:24.239Z,36.50
2019-03-08T15:47:54.313Z,36.50
2019-03-08T15:50:24.370Z,36.50
2019-03-08T15:52:54.569Z,35.70
2019-03-08T15:55:24.726Z,35.40
2019-03-08T15:57:55.337Z,34.90
2019-03-08T16:00:25.623Z,35.50
2019-03-08T16:02:56.206Z,35.90
2019-03-08T16:05:28.468Z,36.10
2019-03-08T16:08:01.653Z,36.50
2019-03-08T16:10:29.981Z,36.90
2019-03-08T16:13:00.135Z,36.50
2019-03-08T16:15:30.266Z,36.80
2019-03-08T16:18:00.552Z,37.50
2019-03-08T16:20:31.045Z,37.40
2019-03-08T16:23:02.678Z,37.60
2019-03-08T16:25:33.414Z,37.80
2019-03-08T16:28:03.653Z,38.00
2019-03-08T16:30:51.928Z,37.70
2019-03-08T16:33:25.785Z,38.90
2019-03-08T16:35:59.389Z,38.40
2019-03-08T16:38:46.504Z,38.50
2019-03-08T16:41:18.065Z,38.90
2019-03-08T16:44:05.960Z,38.80
2019-03-08T16:46:43.684Z,39.30
2019-03-08T16:49:18.841Z,39.80
2019-03-08T16:51:57.328Z,39.80
2019-03-08T16:54:28.851Z,39.90
2019-03-08T16:57:00.970Z,40.30
2019-03-08T16:59:35.633Z,40.30
2019-03-08T17:02:22.618Z,40.60
2019-03-08T17:04:54.870Z,41.10
2019-03-08T17:07:38.678Z,42.00
2019-03-08T17:10:14.061Z,42.50
2019-03-08T17:12:46.180Z,43.20
2019-03-08T17:15:29.876Z,43.80
2019-03-08T17:18:07.306Z,43.80
2019-03-08T17:20:45.039Z,44.20
2019-03-08T17:23:16.930Z,44.50
2019-03-08T17:26:06.979Z,45.30
2019-03-08T17:28:49.058Z,45.30
2019-03-08T17:31:33.200Z,45.70
2019-03-08T17:34:11.167Z,45.50
2019-03-08T17:37:01.013Z,46.00
2019-03-08T17:39:32.888Z,46.10
2019-03-08T17:42:13.871Z,45.90
2019-03-08T17:44:51.357Z,46.80
2019-03-08T17:47:23.071Z,46.90
2019-03-08T17:49:54.869Z,46.80
2019-03-08T17:52:43.730Z,46.90
2019-03-08T17:55:21.761Z,47.10
2019-03-08T17:58:08.709Z,47.20
2019-03-08T18:00:41.228Z,49.00
2019-03-08T18:03:15.730Z,48.50
2019-03-08T18:05:47.522Z,48.90
2019-03-08T18:08:36.059Z,49.10
2019-03-08T18:11:10.627Z,49.60
2019-03-08T18:13:48.187Z,49.30
2019-03-08T18:16:22.802Z,48.80
2019-03-08T18:19:00.338Z,49.10
2019-03-08T18:21:44.186Z,49.20
2019-03-08T18:24:32.420Z,48.70
2019-03-08T18:27:09.726Z,48.90
2019-03-08T18:29:53.793Z,49.20
2019-03-08T18:32:31.134Z,50.00
2019-03-08T18:35:21.113Z,50.00
2019-03-08T18:38:09.447Z,50.50
2019-03-08T18:40:44.179Z,50.90
2019-03-08T18:43:17.279Z,50.80
2019-03-08T18:45:52.088Z,50.50
2019-03-08T18:48:26.717Z,51.30
2019-03-08T18:51:14.043Z,51.60
2019-03-08T18:53:46.208Z,51.50
2019-03-08T18:56:34.342Z,51.60
2019-03-08T18:59:13.075Z,51.80
2019-03-08T19:01:44.851Z,51.70
2019-03-08T19:04:22.332Z,52.20
2019-03-08T19:07:07.071Z,51.70
2019-03-08T19:09:44.776Z,52.30
2019-03-08T19:12:33.234Z,52.30
2019-03-08T19:15:10.000Z,52.90
2019-03-08T19:17:50.515Z,53.60
2019-03-08T19:20:22.242Z,53.00
2019-03-08T19:22:56.967Z,53.00
2019-03-08T19:25:44.008Z,53.20
2019-03-08T19:28:15.866Z,53.10
2019-03-08T19:30:50.405Z,53.30
2019-03-08T19:33:22.172Z,53.40
2019-03-08T19:36:09.230Z,53.90
2019-03-08T19:38:47.476Z,53.70
2019-03-08T19:41:25.174Z,54.00
2019-03-08T19:44:13.388Z,54.50
2019-03-08T19:46:48.621Z,54.30
2019-03-08T19:49:20.328Z,54.60
2019-03-08T19:52:10.412Z,54.80
2019-03-08T19:54:51.370Z,54.90
2019-03-08T19:57:38.458Z,54.90
2019-03-08T20:00:28.338Z,55.40
2019-03-08T20:03:00.400Z,55.40
2019-03-08T20:05:34.997Z,55.30
2019-03-08T20:08:09.861Z,54.90
2019-03-08T20:10:54.212Z,55.20
2019-03-08T20:13:42.122Z,55.80
2019-03-08T20:16:20.176Z,55.80
2019-03-08T20:18:59.059Z,55.90
2019-03-08T20:21:47.328Z,56.10
2019-03-08T20:24:21.722Z,55.70
2019-03-08T20:26:56.426Z,56.60
2019-03-08T20:29:46.559Z,56.10
2019-03-08T20:32:21.681Z,56.80
2019-03-08T20:35:02.758Z,56.60
2019-03-08T20:37:51.424Z,56.70
2019-03-08T20:40:23.257Z,56.30
2019-03-08T20:42:55.455Z,56.10
2019-03-08T20:45:30.284Z,56.80
2019-03-08T20:48:01.443Z,56.80
2019-03-08T20:50:32.971Z,57.60
2019-03-08T20:53:03.124Z,57.60
2019-03-08T20:55:33.337Z,57.30
2019-03-08T20:58:03.682Z,57.80
2019-03-08T21:00:33.854Z,58.10
2019-03-08T21:03:04.356Z,57.90
2019-03-08T21:05:35.954Z,58.10
2019-03-08T21:08:06.267Z,58.30
2019-03-08T21:10:36.817Z,58.30
2019-03-08T21:13:07.440Z,58.40
2019-03-08T21:15:38.084Z,58.00
2019-03-08T21:18:08.545Z,58.20
2019-03-08T21:20:39.025Z,58.10
2019-03-08T21:23:09.178Z,58.20
2019-03-08T21:25:39.415Z,57.70
2019-03-08T21:28:09.563Z,57.40
2019-03-08T21:30:39.816Z,57.90
2019-03-08T21:33:10.391Z,63.90
2019-03-08T21:35:41.625Z,62.30
2019-03-08T21:38:12.556Z,61.00
2019-03-08T21:40:43.145Z,58.10
2019-03-08T21:43:13.249Z,55.20
2019-03-08T21:45:43.588Z,54.10
2019-03-08T21:48:13.736Z,53.20
2019-03-08T21:50:43.896Z,53.60
2019-03-08T21:53:13.973Z,52.90
2019-03-08T21:55:44.133Z,51.00
2019-03-08T21:58:14.279Z,51.10
2019-03-08T22:00:44.492Z,51.80
2019-03-08T22:03:14.679Z,50.90
2019-03-08T22:05:44.827Z,50.60
2019-03-08T22:08:17.719Z,50.40
2019-03-08T22:10:48.904Z,50.30
2019-03-08T22:13:19.041Z,49.70
2019-03-08T22:15:49.647Z,49.70
2019-03-08T22:18:19.794Z,49.60
2019-03-08T22:20:50.267Z,49.10
2019-03-08T22:23:20.560Z,48.10
2019-03-08T22:25:50.630Z,45.70
2019-03-08T22:28:20.735Z,48.20
2019-03-08T22:30:51.273Z,50.30
2019-03-08T22:33:21.775Z,50.30
2019-03-08T22:35:51.835Z,49.50
2019-03-08T22:38:22.269Z,50.20
2019-03-08T22:40:52.364Z,50.60
2019-03-08T22:43:22.484Z,50.90
2019-03-08T22:45:53.232Z,50.00
2019-03-08T22:48:23.665Z,50.30
2019-03-08T22:50:54.069Z,49.30
2019-03-08T22:53:24.624Z,48.60
2019-03-08T22:55:54.750Z,49.90
2019-03-08T22:58:24.960Z,49.20
2019-03-08T23:01:07.790Z,50.30
2019-03-08T23:03:39.519Z,51.50
2019-03-08T23:06:09.756Z,49.70
2019-03-08T23:08:39.843Z,51.40
2019-03-08T23:11:10.117Z,51.20
2019-03-08T23:13:40.270Z,50.80
2019-03-08T23:16:10.567Z,51.40
2019-03-08T23:18:41.098Z,51.60
2019-03-08T23:21:11.295Z,51.40
2019-03-08T23:23:41.452Z,51.60
2019-03-08T23:26:11.674Z,50.60
2019-03-08T23:28:43.410Z,49.70
2019-03-08T23:31:17.839Z,50.20
2019-03-08T23:33:47.935Z,50.20
2019-03-08T23:36:18.096Z,50.60
2019-03-08T23:38:48.247Z,51.60
2019-03-08T23:41:18.467Z,51.60
2019-03-08T23:43:48.535Z,51.40
2019-03-08T23:46:18.957Z,51.90
2019-03-08T23:48:49.098Z,51.70
2019-03-08T23:51:19.537Z,49.20
2019-03-08T23:53:49.860Z,51.00
2019-03-08T23:56:20.073Z,51.40
2019-03-08T23:58:50.167Z,51.00
